createdAt,value
2023-03-23T00:00:58.312Z,9.711676
2023-03-23T00:01:58.299Z,9.711615
2023-03-23T00:02:58.275Z,9.711550
2023-03-23T00:03:58.269Z,9.711599
2023-03-23T00:04:58.253Z,9.711847
2023-03-23T00:05:58.282Z,9.711748
2023-03-23T00:06:58.776Z,9.711916
2023-03-23T00:07:58.222Z,9.711893
2023-03-23T00:08:58.777Z,9.711980
2023-03-23T00:09:58.229Z,9.711711
2023-03-23T00:10:58.208Z,9.711828
2023-03-23T00:11:58.190Z,9.711720
2023-03-23T00:12:58.174Z,9.711429
2023-03-23T00:13:58.289Z,9.711884
2023-03-23T00:14:58.164Z,9.711637
2023-03-23T00:15:58.168Z,9.711579
2023-03-23T00:16:59.168Z,9.711912
2023-03-23T00:17:58.140Z,9.711964
2023-03-23T00:18:58.138Z,9.711634
2023-03-23T00:19:58.138Z,9.711448
2023-03-23T00:20:58.127Z,9.711254
2023-03-23T00:21:58.153Z,9.711292
2023-03-23T00:26:58.982Z,9.711908
2023-03-23T00:27:58.994Z,9.712017
2023-03-23T00:28:58.999Z,9.711995
2023-03-23T00:29:58.975Z,9.711995
2023-03-23T00:30:58.965Z,9.712010
2023-03-23T00:31:58.958Z,9.712054
2023-03-23T00:32:58.954Z,9.711982
2023-03-23T00:33:58.954Z,9.712010
2023-03-23T00:34:58.944Z,9.711979
2023-03-23T00:35:58.950Z,9.712006
2023-03-23T00:36:58.915Z,9.711938
2023-03-23T00:37:58.917Z,9.712006
2023-03-23T00:38:58.898Z,9.712047
2023-03-23T00:39:58.884Z,9.711977
2023-03-23T00:40:58.888Z,9.711990
2023-03-23T00:41:58.875Z,9.711960
2023-03-23T00:42:58.879Z,9.711903
2023-03-23T00:43:58.853Z,9.711967
2023-03-23T00:44:59.780Z,9.711982
2023-03-23T00:45:58.843Z,9.712080
2023-03-23T00:46:58.826Z,9.711967
2023-03-23T00:47:59.352Z,9.711843
2023-03-23T00:48:59.807Z,9.711802
2023-03-23T00:49:58.806Z,9.711653
2023-03-23T00:50:58.797Z,9.711616
2023-03-23T00:51:58.807Z,9.711660
2023-03-23T00:52:58.790Z,9.711652
2023-03-23T00:53:58.770Z,9.711681
2023-03-23T00:54:58.773Z,9.711699
2023-03-23T00:55:58.764Z,9.711629
2023-03-23T00:56:58.757Z,9.711569
2023-03-23T00:57:58.750Z,9.711575
2023-03-23T00:58:58.740Z,9.711656
2023-03-23T00:59:58.728Z,9.711580
2023-03-23T01:00:59.713Z,9.711609
2023-03-23T01:01:58.710Z,9.711589
2023-03-23T01:02:58.713Z,9.711574
2023-03-23T01:03:58.692Z,9.711708
2023-03-23T01:04:59.364Z,9.711516
2023-03-23T01:05:58.698Z,9.711543
2023-03-23T01:06:58.674Z,9.711592
2023-03-23T01:07:58.671Z,9.711613
2023-03-23T01:08:58.651Z,9.711673
2023-03-23T01:09:58.641Z,9.711569
2023-03-23T01:10:59.362Z,9.711848
2023-03-23T01:11:58.650Z,9.711603
2023-03-23T01:12:58.625Z,9.711599
2023-03-23T01:13:58.615Z,9.711643
2023-03-23T01:14:58.606Z,9.711502
2023-03-23T01:15:58.597Z,9.711504
2023-03-23T01:16:58.582Z,9.711563
2023-03-23T01:17:58.597Z,9.711715
2023-03-23T01:18:58.561Z,9.711670
2023-03-23T01:19:58.572Z,9.711473
2023-03-23T01:20:58.570Z,9.711495
2023-03-23T01:21:58.565Z,9.711486
2023-03-23T01:22:58.540Z,9.711568
2023-03-23T01:23:58.546Z,9.711546
2023-03-23T01:24:58.533Z,9.711792
2023-03-23T01:25:58.513Z,9.712504
2023-03-23T01:26:58.547Z,9.712479
2023-03-23T01:27:58.494Z,9.712283
2023-03-23T01:28:58.490Z,9.711641
2023-03-23T01:29:58.476Z,9.711584
2023-03-23T01:30:58.480Z,9.711531
2023-03-23T01:31:58.473Z,9.711560
2023-03-23T01:32:58.490Z,9.711606
2023-03-23T01:33:58.451Z,9.711620
2023-03-23T01:34:58.446Z,9.711624
2023-03-23T01:35:58.474Z,9.711614
2023-03-23T01:36:58.418Z,9.711619
2023-03-23T01:37:58.423Z,9.711584
2023-03-23T01:38:58.413Z,9.711606
2023-03-23T01:39:58.403Z,9.711642
2023-03-23T01:40:58.395Z,9.711662
2023-03-23T01:41:58.399Z,9.711620
2023-03-23T01:42:58.384Z,9.711643
2023-03-23T01:43:58.382Z,9.711617
2023-03-23T01:44:58.375Z,9.711636
2023-03-23T01:45:58.354Z,9.711655
2023-03-23T01:46:58.355Z,9.711614
2023-03-23T01:47:58.368Z,9.711705
2023-03-23T01:48:58.333Z,9.711712
2023-03-23T01:49:58.336Z,9.711731
2023-03-23T01:50:58.303Z,9.711643
2023-03-23T01:51:58.311Z,9.711626
2023-03-23T01:52:58.296Z,9.711635
2023-03-23T01:53:58.295Z,9.711638
2023-03-23T01:54:58.275Z,9.711632
2023-03-23T01:55:58.282Z,9.711662
2023-03-23T01:56:58.272Z,9.711645
2023-03-23T01:57:58.247Z,9.711607
2023-03-23T01:58:58.252Z,9.711622
2023-03-23T01:59:58.245Z,9.711657
2023-03-23T02:00:58.240Z,9.711606
2023-03-23T02:01:58.244Z,9.711625
2023-03-23T02:02:58.221Z,9.711621
2023-03-23T02:03:58.212Z,9.711611
2023-03-23T02:04:58.230Z,9.711616
2023-03-23T02:05:58.194Z,9.711632
2023-03-23T02:06:58.200Z,9.711746
2023-03-23T02:07:58.179Z,9.711777
2023-03-23T02:08:58.194Z,9.711729
2023-03-23T02:09:59.169Z,9.711727
2023-03-23T02:10:58.153Z,9.711712
2023-03-23T02:11:58.152Z,9.711771
2023-03-23T02:12:58.141Z,9.711761
2023-03-23T02:13:58.140Z,9.711762
2023-03-23T02:14:58.117Z,9.711733
2023-03-23T02:15:58.130Z,9.711783
2023-03-23T02:16:58.108Z,9.711706
2023-03-23T02:17:58.094Z,9.711729
2023-03-23T02:18:58.099Z,9.711736
2023-03-23T02:19:58.079Z,9.711695
2023-03-23T02:20:58.086Z,9.711630
2023-03-23T02:21:58.072Z,9.711636
2023-03-23T02:22:58.053Z,9.711617
2023-03-23T02:23:58.052Z,9.711750
2023-03-23T02:24:58.047Z,9.711704
2023-03-23T02:25:58.034Z,9.711712
2023-03-23T02:26:58.047Z,9.711712
2023-03-23T02:27:58.026Z,9.711733
2023-03-23T02:28:58.009Z,9.711733
2023-03-23T02:29:58.012Z,9.711772
2023-03-23T02:30:57.990Z,9.711720
2023-03-23T02:31:58.808Z,9.711675
2023-03-23T02:32:58.002Z,9.711716
2023-03-23T02:33:57.973Z,9.711686
2023-03-23T02:34:57.999Z,9.711745
2023-03-23T02:35:58.013Z,9.711733
2023-03-23T02:36:57.955Z,9.711683
2023-03-23T02:37:57.954Z,9.711705
2023-03-23T02:38:57.944Z,9.711710
2023-03-23T02:39:57.937Z,9.711677
2023-03-23T02:40:57.916Z,9.711750
2023-03-23T02:41:57.936Z,9.711652
2023-03-23T02:42:57.904Z,9.711729
2023-03-23T02:43:57.892Z,9.711682
2023-03-23T02:44:57.905Z,9.711675
2023-03-23T02:45:57.882Z,9.711679
2023-03-23T02:46:57.876Z,9.711674
2023-03-23T02:47:57.855Z,9.711704
2023-03-23T02:48:57.852Z,9.711629
2023-03-23T02:49:57.851Z,9.711606
2023-03-23T02:50:58.393Z,9.711616
2023-03-23T02:51:57.840Z,9.711600
2023-03-23T02:52:57.815Z,9.711601
2023-03-23T02:53:57.806Z,9.711601
2023-03-23T02:54:57.791Z,9.711617
2023-03-23T02:55:57.788Z,9.711603
2023-03-23T02:56:57.788Z,9.711548
2023-03-23T02:57:57.899Z,9.711554
2023-03-23T02:58:58.762Z,9.711699
2023-03-23T02:59:57.764Z,9.711961
2023-03-23T03:00:57.768Z,9.711721
2023-03-23T03:01:57.760Z,9.711621
2023-03-23T03:02:57.727Z,9.711639
2023-03-23T03:03:57.725Z,9.711631
2023-03-23T03:04:57.715Z,9.711670
2023-03-23T03:05:57.718Z,9.711585
2023-03-23T03:06:57.696Z,9.711698
2023-03-23T03:07:57.704Z,9.711667
2023-03-23T03:08:57.678Z,9.711656
2023-03-23T03:09:57.667Z,9.711606
2023-03-23T03:10:57.677Z,9.711607
2023-03-23T03:11:58.396Z,9.711565
2023-03-23T03:12:57.662Z,9.711664
2023-03-23T03:13:57.638Z,9.711535
2023-03-23T03:14:57.633Z,9.711646
2023-03-23T03:15:58.402Z,9.711632
2023-03-23T03:16:57.608Z,9.711567
2023-03-23T03:17:57.642Z,9.711630
2023-03-23T03:18:57.597Z,9.711577
2023-03-23T03:19:57.602Z,9.711675
2023-03-23T03:20:57.583Z,9.711839
2023-03-23T03:21:57.601Z,9.711655
2023-03-23T03:22:57.594Z,9.711492
2023-03-23T03:23:57.562Z,9.711599
2023-03-23T03:24:57.558Z,9.711558
2023-03-23T03:25:57.548Z,9.711661
2023-03-23T03:26:58.325Z,9.711587
2023-03-23T03:27:57.525Z,9.711600
2023-03-23T03:28:57.536Z,9.711469
2023-03-23T03:29:57.518Z,9.711277
2023-03-23T03:30:57.514Z,9.710963
2023-03-23T03:31:57.501Z,9.711091
2023-03-23T03:32:57.494Z,9.711257
2023-03-23T03:33:57.497Z,9.711230
2023-03-23T03:34:57.470Z,9.711560
2023-03-23T03:35:57.488Z,9.711588
2023-03-23T03:36:57.467Z,9.711560
2023-03-23T03:37:57.454Z,9.711576
2023-03-23T03:38:57.461Z,9.711682
2023-03-23T03:39:57.464Z,9.711672
2023-03-23T03:40:57.426Z,9.711645
2023-03-23T03:41:57.413Z,9.711651
2023-03-23T03:42:57.413Z,9.711647
2023-03-23T03:43:57.406Z,9.711668
2023-03-23T03:44:57.476Z,9.711637
2023-03-23T03:45:57.397Z,9.711669
2023-03-23T03:46:57.401Z,9.711699
2023-03-23T03:47:57.433Z,9.711677
2023-03-23T03:48:57.374Z,9.711736
2023-03-23T03:49:57.356Z,9.711623
2023-03-23T03:50:57.361Z,9.711709
2023-03-23T03:51:57.335Z,9.711670
2023-03-23T03:52:57.326Z,9.711670
2023-03-23T03:57:05.750Z,9.711589
2023-03-23T03:58:05.751Z,9.711619
2023-03-23T03:59:21.900Z,9.711585
2023-03-23T04:00:06.731Z,9.711621
2023-03-23T04:01:05.716Z,9.711644
2023-03-23T04:02:05.720Z,9.711679
2023-03-23T04:03:05.763Z,9.711664
2023-03-23T04:04:05.705Z,9.711694
2023-03-23T04:05:05.694Z,9.711707
2023-03-23T04:06:05.699Z,9.711700
2023-03-23T04:07:05.684Z,9.711731
2023-03-23T04:08:09.393Z,9.711717
2023-03-23T04:09:08.257Z,9.711805
2023-03-23T04:10:05.665Z,9.711778
2023-03-23T04:11:05.652Z,9.711739
2023-03-23T04:12:06.631Z,9.711667
2023-03-23T04:13:05.619Z,9.711717
2023-03-23T04:14:05.635Z,9.711645
2023-03-23T04:15:05.964Z,9.711676
2023-03-23T04:16:07.307Z,9.711712
2023-03-23T04:17:05.612Z,9.711652
2023-03-23T04:18:05.590Z,9.711698
2023-03-23T04:19:05.576Z,9.711649
2023-03-23T04:20:05.569Z,9.711694
2023-03-23T04:21:05.588Z,9.711668
2023-03-23T04:22:05.547Z,9.711757
2023-03-23T04:23:05.549Z,9.711745
2023-03-23T04:24:05.594Z,9.711743
2023-03-23T04:25:06.545Z,9.711727
2023-03-23T04:26:05.518Z,9.711765
2023-03-23T04:27:05.523Z,9.711762
2023-03-23T04:28:05.503Z,9.711781
2023-03-23T04:29:05.671Z,9.711721
2023-03-23T04:30:05.494Z,9.711712
2023-03-23T04:31:06.134Z,9.711714
2023-03-23T04:32:05.483Z,9.711715
2023-03-23T04:33:05.463Z,9.711707
2023-03-23T04:34:05.486Z,9.711752
2023-03-23T04:35:12.829Z,9.711724
2023-03-23T04:36:06.453Z,9.711689
2023-03-23T04:37:06.441Z,9.711695
2023-03-23T04:38:05.438Z,9.711704
2023-03-23T04:39:05.426Z,9.711772
2023-03-23T04:40:05.405Z,9.711719
2023-03-23T04:41:05.408Z,9.711694
2023-03-23T04:42:05.396Z,9.711700
2023-03-23T04:43:05.401Z,9.711777
2023-03-23T04:44:05.375Z,9.711676
2023-03-23T04:45:05.378Z,9.711656
2023-03-23T04:46:05.364Z,9.711674
2023-03-23T04:47:05.363Z,9.711659
2023-03-23T04:48:05.350Z,9.711650
2023-03-23T04:49:05.335Z,9.711691
2023-03-23T04:50:05.346Z,9.711651
2023-03-23T04:51:05.332Z,9.711624
2023-03-23T04:52:05.333Z,9.711637
2023-03-23T04:53:05.325Z,9.711640
2023-03-23T04:54:05.300Z,9.711632
2023-03-23T04:55:06.114Z,9.711643
2023-03-23T04:56:05.277Z,9.711611
2023-03-23T04:57:05.284Z,9.711642
2023-03-23T04:58:05.255Z,9.711645
2023-03-23T04:59:05.269Z,9.711666
2023-03-23T05:00:05.252Z,9.711641
2023-03-23T05:01:05.240Z,9.711647
2023-03-23T05:02:14.736Z,9.711627
2023-03-23T05:03:06.225Z,9.711631
2023-03-23T05:04:05.216Z,9.711606
2023-03-23T05:05:05.276Z,9.711609
2023-03-23T05:06:05.231Z,9.711567
2023-03-23T05:07:05.203Z,9.711582
2023-03-23T05:08:05.183Z,9.711617
2023-03-23T05:09:05.172Z,9.711658
2023-03-23T05:10:05.187Z,9.711706
2023-03-23T05:11:05.161Z,9.711699
2023-03-23T05:12:05.149Z,9.711738
2023-03-23T05:13:05.143Z,9.711720
2023-03-23T05:14:05.151Z,9.711773
2023-03-23T05:15:05.152Z,9.711730
2023-03-23T05:16:05.133Z,9.711660
2023-03-23T05:17:05.124Z,9.711680
2023-03-23T05:18:05.109Z,9.711637
2023-03-23T05:19:05.136Z,9.711609
2023-03-23T05:20:05.102Z,9.711634
2023-03-23T05:21:05.094Z,9.711657
2023-03-23T05:22:05.071Z,9.711670
2023-03-23T05:23:05.068Z,9.711611
2023-03-23T05:24:05.061Z,9.711619
2023-03-23T05:25:05.045Z,9.711613
2023-03-23T05:26:05.050Z,9.711692
2023-03-23T05:27:05.025Z,9.711651
2023-03-23T05:28:05.128Z,9.711679
2023-03-23T05:29:05.028Z,9.711669
2023-03-23T05:30:05.012Z,9.711658
2023-03-23T05:31:05.007Z,9.711693
2023-03-23T05:32:06.674Z,9.711769
2023-03-23T05:33:05.017Z,9.711756
2023-03-23T05:34:04.995Z,9.711694
2023-03-23T05:35:04.972Z,9.711671
2023-03-23T05:36:05.038Z,9.711645
2023-03-23T05:37:04.947Z,9.711746
2023-03-23T05:38:04.941Z,9.711762
2023-03-23T05:39:04.958Z,9.711844
2023-03-23T05:40:04.934Z,9.711908
2023-03-23T05:41:04.942Z,9.711661
2023-03-23T05:42:04.914Z,9.711700
2023-03-23T05:43:04.902Z,9.711992
2023-03-23T05:44:04.890Z,9.711738
2023-03-23T05:45:04.881Z,9.711646
2023-03-23T05:46:04.907Z,9.711676
2023-03-23T05:47:05.627Z,9.711866
2023-03-23T05:48:04.878Z,9.711958
2023-03-23T05:49:04.857Z,9.711748
2023-03-23T05:50:05.547Z,9.711796
2023-03-23T05:51:04.896Z,9.711885
2023-03-23T05:52:04.828Z,9.711922
2023-03-23T05:53:04.828Z,9.711957
2023-03-23T05:54:04.848Z,9.712029
2023-03-23T05:55:04.833Z,9.711864
2023-03-23T05:56:04.798Z,9.711715
2023-03-23T05:57:04.806Z,9.711679
2023-03-23T05:58:04.787Z,9.711488
2023-03-23T05:59:05.814Z,9.711478
2023-03-23T06:00:04.773Z,9.711718
2023-03-23T06:01:04.754Z,9.711734
2023-03-23T06:02:04.758Z,9.711721
2023-03-23T06:03:04.739Z,9.711867
2023-03-23T06:04:04.742Z,9.711733
2023-03-23T06:05:04.720Z,9.711851
2023-03-23T06:06:04.763Z,9.711570
2023-03-23T06:07:04.711Z,9.711357
2023-03-23T06:08:04.701Z,9.711509
2023-03-23T06:09:06.563Z,9.711678
2023-03-23T06:10:04.684Z,9.711683
2023-03-23T06:11:04.686Z,9.711632
2023-03-23T06:12:04.704Z,9.711663
2023-03-23T06:13:04.657Z,9.711616
2023-03-23T06:14:04.661Z,9.711702
2023-03-23T06:15:04.664Z,9.711682
2023-03-23T06:16:04.641Z,9.711659
2023-03-23T06:17:04.648Z,9.711697
2023-03-23T06:18:04.626Z,9.711648
2023-03-23T06:19:04.611Z,9.711661
2023-03-23T06:20:04.608Z,9.711670
2023-03-23T06:21:04.656Z,9.711656
2023-03-23T06:22:04.580Z,9.711687
2023-03-23T06:23:04.605Z,9.711641
2023-03-23T06:28:12.502Z,9.711533
2023-03-23T06:29:12.511Z,9.711566
2023-03-23T06:30:12.487Z,9.711564
2023-03-23T06:31:12.538Z,9.711588
2023-03-23T06:32:12.470Z,9.711584
2023-03-23T06:33:12.468Z,9.711568
2023-03-23T06:34:12.467Z,9.711653
2023-03-23T06:35:12.449Z,9.711586
2023-03-23T06:36:12.475Z,9.711528
2023-03-23T06:37:12.456Z,9.711592
2023-03-23T06:38:12.441Z,9.711628
2023-03-23T06:39:12.425Z,9.711623
2023-03-23T06:40:12.419Z,9.711543
2023-03-23T06:41:12.407Z,9.711650
2023-03-23T06:42:12.420Z,9.711627
2023-03-23T06:43:12.391Z,9.711623
2023-03-23T06:44:12.395Z,9.711676
2023-03-23T06:45:12.386Z,9.711635
2023-03-23T06:46:12.359Z,9.711643
2023-03-23T06:47:12.364Z,9.711642
2023-03-23T06:48:12.345Z,9.711626
2023-03-23T06:49:12.354Z,9.711690
2023-03-23T06:50:12.339Z,9.711784
2023-03-23T06:51:12.364Z,9.711718
2023-03-23T06:52:12.353Z,9.711652
2023-03-23T06:53:12.351Z,9.711698
2023-03-23T06:54:12.318Z,9.711724
2023-03-23T06:55:12.288Z,9.711734
2023-03-23T06:56:12.298Z,9.711714
2023-03-23T06:57:12.301Z,9.711799
2023-03-23T06:58:12.396Z,9.711800
2023-03-23T06:59:12.283Z,9.711802
2023-03-23T07:00:12.265Z,9.711765
2023-03-23T07:01:12.249Z,9.711758
2023-03-23T07:02:12.243Z,9.711772
2023-03-23T07:03:12.233Z,9.711780
2023-03-23T07:04:12.218Z,9.711769
2023-03-23T07:05:12.231Z,9.711712
2023-03-23T07:06:12.212Z,9.711742
2023-03-23T07:07:12.204Z,9.711750
2023-03-23T07:08:12.192Z,9.711773
2023-03-23T07:09:12.197Z,9.711869
2023-03-23T07:10:12.199Z,9.711879
2023-03-23T07:11:12.439Z,9.711841
2023-03-23T07:12:12.243Z,9.711743
2023-03-23T07:13:12.197Z,9.711703
2023-03-23T07:14:12.154Z,9.711657
2023-03-23T07:15:12.138Z,9.711716
2023-03-23T07:16:12.146Z,9.711739
2023-03-23T07:17:12.132Z,9.711728
2023-03-23T07:18:12.129Z,9.711720
2023-03-23T07:19:12.110Z,9.711732
2023-03-23T07:20:12.131Z,9.711738
2023-03-23T07:21:12.095Z,9.711689
2023-03-23T07:22:12.385Z,9.711699
2023-03-23T07:23:12.065Z,9.711756
2023-03-23T07:24:12.061Z,9.711694
2023-03-23T07:25:12.065Z,9.711630
2023-03-23T07:26:12.053Z,9.711738
2023-03-23T07:27:12.050Z,9.711695
2023-03-23T07:28:12.034Z,9.711789
2023-03-23T07:29:12.881Z,9.711765
2023-03-23T07:30:12.042Z,9.711788
2023-03-23T07:31:12.001Z,9.711859
2023-03-23T07:32:12.007Z,9.711896
2023-03-23T07:33:11.993Z,9.711878
2023-03-23T07:34:11.990Z,9.711752
2023-03-23T07:35:11.968Z,9.711682
2023-03-23T07:36:12.004Z,9.711650
2023-03-23T07:37:11.966Z,9.711643
2023-03-23T07:38:11.954Z,9.711640
2023-03-23T07:39:11.951Z,9.711630
2023-03-23T07:40:11.938Z,9.711623
2023-03-23T07:41:11.940Z,9.711635
2023-03-23T07:42:11.936Z,9.711665
2023-03-23T07:43:11.914Z,9.711681
2023-03-23T07:44:11.897Z,9.711684
2023-03-23T07:45:11.894Z,9.711687
2023-03-23T07:46:12.895Z,9.711705
2023-03-23T07:47:11.873Z,9.711679
2023-03-23T07:48:19.617Z,9.711669
2023-03-23T07:49:13.867Z,9.711718
2023-03-23T07:50:11.865Z,9.711681
2023-03-23T07:51:11.860Z,9.711724
2023-03-23T07:52:11.842Z,9.711686
2023-03-23T07:53:11.827Z,9.711765
2023-03-23T07:54:11.857Z,9.711757
2023-03-23T07:55:11.817Z,9.711764
2023-03-23T07:56:11.835Z,9.711788
2023-03-23T07:57:11.803Z,9.711788
2023-03-23T07:58:11.796Z,9.711745
2023-03-23T07:59:11.788Z,9.711858
2023-03-23T08:00:11.768Z,9.711823
2023-03-23T08:01:11.781Z,9.711774
2023-03-23T08:02:11.760Z,9.711783
2023-03-23T08:03:11.760Z,9.711732
2023-03-23T08:04:11.743Z,9.711871
2023-03-23T08:05:11.752Z,9.711738
2023-03-23T08:06:11.741Z,9.711635
2023-03-23T08:07:11.727Z,9.711865
2023-03-23T08:08:12.716Z,9.711785
2023-03-23T08:09:11.720Z,9.711774
2023-03-23T08:10:11.687Z,9.711704
2023-03-23T08:11:11.698Z,9.711740
2023-03-23T08:12:11.713Z,9.711596
2023-03-23T08:13:11.681Z,9.711725
2023-03-23T08:14:11.667Z,9.711793
2023-03-23T08:15:11.658Z,9.711759
2023-03-23T08:16:11.638Z,9.711344
2023-03-23T08:17:11.648Z,9.711495
2023-03-23T08:18:11.657Z,9.711814
2023-03-23T08:19:11.614Z,9.711863
2023-03-23T08:20:12.668Z,9.711895
2023-03-23T08:21:11.620Z,9.711857
2023-03-23T08:22:11.620Z,9.711843
2023-03-23T08:23:12.398Z,9.711682
2023-03-23T08:24:11.914Z,9.711748
2023-03-23T08:25:11.563Z,9.711819
2023-03-23T08:26:11.580Z,9.711931
2023-03-23T08:27:11.565Z,9.711862
2023-03-23T08:28:11.552Z,9.711720
2023-03-23T08:29:11.540Z,9.711884
2023-03-23T08:30:11.542Z,9.711899
2023-03-23T08:31:11.521Z,9.711788
2023-03-23T08:32:11.514Z,9.711920
2023-03-23T08:33:11.524Z,9.711798
2023-03-23T08:34:12.909Z,9.711947
2023-03-23T08:35:11.494Z,9.711825
2023-03-23T08:36:11.513Z,9.711840
2023-03-23T08:37:11.462Z,9.711805
2023-03-23T08:38:11.469Z,9.711804
2023-03-23T08:39:11.469Z,9.711818
2023-03-23T08:40:11.489Z,9.711837
2023-03-23T08:41:12.267Z,9.711870
2023-03-23T08:42:11.434Z,9.711884
2023-03-23T08:43:11.432Z,9.711807
2023-03-23T08:44:11.428Z,9.711746
2023-03-23T08:45:11.416Z,9.711782
2023-03-23T08:46:11.411Z,9.711778
2023-03-23T08:47:11.500Z,9.711743
2023-03-23T08:48:11.405Z,9.711679
2023-03-23T08:49:11.440Z,9.711699
2023-03-23T08:50:11.378Z,9.711722
2023-03-23T08:51:11.477Z,9.711746
2023-03-23T08:52:11.350Z,9.711758
2023-03-23T08:53:11.388Z,9.711676
2023-03-23T08:54:11.406Z,9.711723
2023-03-23T08:55:11.343Z,9.711750
2023-03-23T08:56:11.373Z,9.711700
2023-03-23T08:57:11.322Z,9.711678
2023-03-23T08:58:11.327Z,9.711697
2023-03-23T08:59:11.323Z,9.711719
2023-03-23T09:00:11.437Z,9.711740
2023-03-23T09:01:11.942Z,9.711740
2023-03-23T09:02:11.325Z,9.711698
2023-03-23T09:03:11.268Z,9.711625
2023-03-23T09:04:11.254Z,9.711703
2023-03-23T09:05:11.284Z,9.711740
2023-03-23T09:06:11.252Z,9.711816
2023-03-23T09:07:11.414Z,9.711712
2023-03-23T09:08:11.913Z,9.711766
2023-03-23T09:09:11.255Z,9.711800
2023-03-23T09:10:12.229Z,9.711790
2023-03-23T09:11:11.822Z,9.711767
2023-03-23T09:12:11.207Z,9.711657
2023-03-23T09:13:11.212Z,9.711551
2023-03-23T09:14:11.186Z,9.711666
2023-03-23T09:15:11.851Z,9.711720
2023-03-23T09:16:11.164Z,9.711710
2023-03-23T09:17:11.910Z,9.711543
2023-03-23T09:18:11.148Z,9.711492
2023-03-23T09:19:11.149Z,9.711561
2023-03-23T09:20:11.141Z,9.711714
2023-03-23T09:21:19.138Z,9.711694
2023-03-23T09:22:12.134Z,9.711750
2023-03-23T09:23:12.121Z,9.711697
2023-03-23T09:24:11.098Z,9.711929
2023-03-23T09:25:11.898Z,9.711853
2023-03-23T09:26:11.086Z,9.711782
2023-03-23T09:27:11.083Z,9.711646
2023-03-23T09:28:11.074Z,9.711686
2023-03-23T09:29:11.072Z,9.711783
2023-03-23T09:30:11.100Z,9.711751
2023-03-23T09:31:11.057Z,9.711911
2023-03-23T09:32:11.030Z,9.711790
2023-03-23T09:33:11.037Z,9.711681
2023-03-23T09:34:12.025Z,9.711999
2023-03-23T09:35:11.007Z,9.711914
2023-03-23T09:36:11.021Z,9.711967
2023-03-23T09:37:10.989Z,9.711926
2023-03-23T09:38:11.021Z,9.712018
2023-03-23T09:39:10.970Z,9.711791
2023-03-23T09:40:10.972Z,9.711705
2023-03-23T09:41:10.982Z,9.711628
2023-03-23T09:42:10.947Z,9.711589
2023-03-23T09:43:10.956Z,9.711511
2023-03-23T09:44:10.963Z,9.711538
2023-03-23T09:45:10.922Z,9.711446
2023-03-23T09:46:10.926Z,9.711435
2023-03-23T09:47:10.932Z,9.711508
2023-03-23T09:48:10.916Z,9.711520
2023-03-23T09:49:10.897Z,9.711465
2023-03-23T09:50:10.893Z,9.711419
2023-03-23T09:51:10.873Z,9.711551
2023-03-23T09:52:10.882Z,9.711467
2023-03-23T09:53:10.859Z,9.711543
2023-03-23T09:54:10.850Z,9.711491
2023-03-23T09:55:10.853Z,9.711505
2023-03-23T09:56:10.859Z,9.711489
2023-03-23T09:57:10.840Z,9.711494
2023-03-23T09:58:10.819Z,9.711541
2023-03-23T09:59:10.813Z,9.711365
2023-03-23T10:00:10.801Z,9.711263
2023-03-23T10:01:10.788Z,9.711206
2023-03-23T10:02:10.788Z,9.711147
2023-03-23T10:03:10.779Z,9.711019
2023-03-23T10:04:10.774Z,9.711374
2023-03-23T10:05:10.756Z,9.711628
2023-03-23T10:06:10.768Z,9.711939
2023-03-23T10:07:10.749Z,9.711926
2023-03-23T10:08:10.748Z,9.711917
2023-03-23T10:09:10.746Z,9.712187
2023-03-23T10:10:10.742Z,9.712369
2023-03-23T10:11:10.715Z,9.712414
2023-03-23T10:12:10.741Z,9.712552
2023-03-23T10:13:10.704Z,9.712442
2023-03-23T10:14:10.691Z,9.712358
2023-03-23T10:15:11.429Z,9.712087
2023-03-23T10:16:10.685Z,9.712255
2023-03-23T10:17:11.184Z,9.712041
2023-03-23T10:18:10.673Z,9.712114
2023-03-23T10:19:11.421Z,9.712167
2023-03-23T10:20:10.650Z,9.712193
2023-03-23T10:21:11.402Z,9.712245
2023-03-23T10:22:10.629Z,9.712159
2023-03-23T10:23:10.616Z,9.712195
2023-03-23T10:24:10.670Z,9.712227
2023-03-23T10:25:10.609Z,9.712214
2023-03-23T10:26:10.614Z,9.712497
2023-03-23T10:27:10.578Z,9.712697
2023-03-23T10:28:10.588Z,9.712610
2023-03-23T10:29:10.589Z,9.712167
2023-03-23T10:30:10.568Z,9.712013
2023-03-23T10:31:10.561Z,9.712041
2023-03-23T10:32:10.545Z,9.711877
2023-03-23T10:33:10.574Z,9.711862
2023-03-23T10:34:10.558Z,9.711762
2023-03-23T10:35:10.545Z,9.711784
2023-03-23T10:36:10.567Z,9.711761
2023-03-23T10:37:11.551Z,9.711789
2023-03-23T10:38:10.516Z,9.711940
2023-03-23T10:39:10.536Z,9.711784
2023-03-23T10:40:10.507Z,9.711733
2023-03-23T10:41:10.499Z,9.711700
2023-03-23T10:42:10.483Z,9.711735
2023-03-23T10:43:10.485Z,9.711698
2023-03-23T10:44:10.467Z,9.711692
2023-03-23T10:45:10.445Z,9.711667
2023-03-23T10:46:11.416Z,9.711673
2023-03-23T10:47:10.439Z,9.711690
2023-03-23T10:48:10.443Z,9.711593
2023-03-23T10:49:10.415Z,9.711644
2023-03-23T10:50:11.418Z,9.711743
2023-03-23T10:51:10.410Z,9.711884
2023-03-23T10:52:10.449Z,9.711836
2023-03-23T10:53:10.397Z,9.711734
2023-03-23T10:54:11.125Z,9.711711
2023-03-23T10:55:10.379Z,9.711757
2023-03-23T10:56:10.361Z,9.711759
2023-03-23T10:57:10.369Z,9.711656
2023-03-23T10:58:10.374Z,9.711751
2023-03-23T10:59:10.342Z,9.711708
2023-03-23T11:00:10.341Z,9.711782
2023-03-23T11:01:10.349Z,9.711688
2023-03-23T11:02:13.608Z,9.711698
2023-03-23T11:03:11.314Z,9.711758
2023-03-23T11:04:10.315Z,9.711696
2023-03-23T11:05:11.952Z,9.711646
2023-03-23T11:06:11.945Z,9.711714
2023-03-23T11:07:10.293Z,9.711641
2023-03-23T11:08:10.260Z,9.711696
2023-03-23T11:09:10.247Z,9.711716
2023-03-23T11:10:11.266Z,9.711716
2023-03-23T11:11:10.245Z,9.711735
2023-03-23T11:12:10.237Z,9.711688
2023-03-23T11:13:10.235Z,9.711653
2023-03-23T11:14:10.262Z,9.711655
2023-03-23T11:15:10.234Z,9.711682
2023-03-23T11:16:10.210Z,9.711733
2023-03-23T11:17:15.930Z,9.711757
2023-03-23T11:18:12.202Z,9.711708
2023-03-23T11:19:10.188Z,9.711778
2023-03-23T11:20:10.190Z,9.711758
2023-03-23T11:21:10.175Z,9.711830
2023-03-23T11:22:10.168Z,9.711778
2023-03-23T11:23:10.151Z,9.711653
2023-03-23T11:24:10.364Z,9.711736
2023-03-23T11:25:10.184Z,9.711591
2023-03-23T11:26:10.142Z,9.711834
2023-03-23T11:27:10.149Z,9.712094
2023-03-23T11:28:10.149Z,9.712079
2023-03-23T11:29:10.101Z,9.711889
2023-03-23T11:30:10.118Z,9.711958
2023-03-23T11:31:10.101Z,9.711703
2023-03-23T11:32:10.108Z,9.711651
2023-03-23T11:33:10.117Z,9.711922
2023-03-23T11:34:10.086Z,9.711920
2023-03-23T11:35:16.254Z,9.712111
2023-03-23T11:36:12.056Z,9.712223
2023-03-23T11:37:10.056Z,9.712214
2023-03-23T11:38:10.048Z,9.712317
2023-03-23T11:39:10.045Z,9.712092
2023-03-23T11:40:10.029Z,9.712163
2023-03-23T11:41:10.031Z,9.712439
2023-03-23T11:42:10.020Z,9.712358
2023-03-23T11:43:10.006Z,9.712346
2023-03-23T11:44:10.047Z,9.712284
2023-03-23T11:45:09.979Z,9.712067
2023-03-23T11:46:10.021Z,9.711810
2023-03-23T11:47:10.004Z,9.711836
2023-03-23T11:48:09.966Z,9.711917
2023-03-23T11:49:19.252Z,9.711715
2023-03-23T11:50:11.953Z,9.711500
2023-03-23T11:51:09.936Z,9.711383
2023-03-23T11:52:09.958Z,9.711376
2023-03-23T11:53:09.959Z,9.711729
2023-03-23T11:54:09.961Z,9.711842
2023-03-23T11:55:10.885Z,9.711967
2023-03-23T11:56:09.949Z,9.712075